Terminal Aerodrome Forecast
Issued by NWS Pueblo, CO

Home | Current Version | Previous Version | Text Only | Print | Product List | Glossary On
Versions: 1 2 3 4 5 6 7 8 9 10 11 12 13 14 15 16 17 18 19
000
FTUS45 KPUB 202229 AAC
TAFCOS
TAF AMD
KCOS 202229Z 2022/2118 09014G24KT 4SM -SHRA BR BKN012 OVC025
     FM210000 13009KT 4SM -RASN BR BKN012
     FM210200 04007KT 2SM -SN BKN010
     FM210300 04007KT 1SM -SN BR OVC006
     FM210900 35007KT 3SM BR VCSH BKN010
     FM211500 35012KT P6SM SCT030 BKN060=

USA.gov is the U.S. government's official web portal to all federal, state and local government web resources and services.